sensor_id;sensor_type;location;lat;lon;timestamp;temperature;humidity
44573;DHT22;31762;45.420;10.072;2022-11-20T00:02:58;8.10;99.90
44573;DHT22;31762;45.420;10.072;2022-11-20T00:07:59;7.90;99.90
44573;DHT22;31762;45.420;10.072;2022-11-20T00:13:01;7.50;99.90
44573;DHT22;31762;45.420;10.072;2022-11-20T00:18:03;8.00;99.90
44573;DHT22;31762;45.420;10.072;2022-11-20T00:23:04;8.00;99.90
44573;DHT22;31762;45.420;10.072;2022-11-20T00:28:06;7.90;99.90
44573;DHT22;31762;45.420;10.072;2022-11-20T00:33:08;8.20;99.90
44573;DHT22;31762;45.420;10.072;2022-11-20T00:38:10;8.30;99.90
44573;DHT22;31762;45.420;10.072;2022-11-20T00:43:11;8.40;99.90
44573;DHT22;31762;45.420;10.072;2022-11-20T00:48:13;8.00;99.90
44573;DHT22;31762;45.420;10.072;2022-11-20T00:53:15;8.20;99.90
44573;DHT22;31762;45.420;10.072;2022-11-20T00:58:16;8.00;99.90
44573;DHT22;31762;45.420;10.072;2022-11-20T01:03:18;7.70;99.90
44573;DHT22;31762;45.420;10.072;2022-11-20T01:08:30;7.50;99.90
44573;DHT22;31762;45.420;10.072;2022-11-20T01:13:32;7.60;99.90
44573;DHT22;31762;45.420;10.072;2022-11-20T01:18:35;7.50;99.90
44573;DHT22;31762;45.420;10.072;2022-11-20T01:23:39;7.40;99.90
44573;DHT22;31762;45.420;10.072;2022-11-20T01:28:42;7.10;99.90
44573;DHT22;31762;45.420;10.072;2022-11-20T01:33:45;6.60;99.90
44573;DHT22;31762;45.420;10.072;2022-11-20T01:38:47;6.30;99.90
44573;DHT22;31762;45.420;10.072;2022-11-20T01:43:49;6.50;99.90
44573;DHT22;31762;45.420;10.072;2022-11-20T01:49:08;6.40;99.90
44573;DHT22;31762;45.420;10.072;2022-11-20T01:54:16;6.10;99.90
44573;DHT22;31762;45.420;10.072;2022-11-20T01:59:19;6.20;99.90
44573;DHT22;31762;45.420;10.072;2022-11-20T02:04:23;6.10;99.90
44573;DHT22;31762;45.420;10.072;2022-11-20T02:09:27;6.10;99.90
44573;DHT22;31762;45.420;10.072;2022-11-20T02:14:29;6.30;99.90
44573;DHT22;31762;45.420;10.072;2022-11-20T02:19:31;6.30;99.90
44573;DHT22;31762;45.420;10.072;2022-11-20T02:24:33;6.40;99.90
44573;DHT22;31762;45.420;10.072;2022-11-20T02:29:46;5.90;99.90
44573;DHT22;31762;45.420;10.072;2022-11-20T02:34:49;5.70;99.90
44573;DHT22;31762;45.420;10.072;2022-11-20T02:39:51;5.80;99.90
44573;DHT22;31762;45.420;10.072;2022-11-20T02:44:53;5.80;99.90
44573;DHT22;31762;45.420;10.072;2022-11-20T02:49:55;5.70;99.90
44573;DHT22;31762;45.420;10.072;2022-11-20T02:54:57;6.30;99.90
44573;DHT22;31762;45.420;10.072;2022-11-20T02:59:58;6.20;99.90
44573;DHT22;31762;45.420;10.072;2022-11-20T03:05:00;5.90;99.90
44573;DHT22;31762;45.420;10.072;2022-11-20T03:10:03;5.70;99.90
44573;DHT22;31762;45.420;10.072;2022-11-20T03:15:06;5.40;99.90
44573;DHT22;31762;45.420;10.072;2022-11-20T03:20:08;5.40;99.90
44573;DHT22;31762;45.420;10.072;2022-11-20T03:25:10;5.00;99.90
44573;DHT22;31762;45.420;10.072;2022-11-20T03:30:12;5.20;99.90
44573;DHT22;31762;45.420;10.072;2022-11-20T03:35:14;5.40;99.90
44573;DHT22;31762;45.420;10.072;2022-11-20T03:40:16;5.60;99.90
44573;DHT22;31762;45.420;10.072;2022-11-20T03:45:18;5.40;99.90
44573;DHT22;31762;45.420;10.072;2022-11-20T03:50:20;5.30;99.90
44573;DHT22;31762;45.420;10.072;2022-11-20T03:55:22;5.30;99.90
44573;DHT22;31762;45.420;10.072;2022-11-20T04:00:23;5.40;99.90
44573;DHT22;31762;45.420;10.072;2022-11-20T04:05:25;5.30;99.90
44573;DHT22;31762;45.420;10.072;2022-11-20T04:10:27;5.20;99.90
44573;DHT22;31762;45.420;10.072;2022-11-20T04:15:29;5.40;99.90
44573;DHT22;31762;45.420;10.072;2022-11-20T04:20:36;5.20;99.90
44573;DHT22;31762;45.420;10.072;2022-11-20T04:25:37;5.20;99.90
44573;DHT22;31762;45.420;10.072;2022-11-20T04:30:39;4.90;99.90
44573;DHT22;31762;45.420;10.072;2022-11-20T04:35:41;5.00;99.90
44573;DHT22;31762;45.420;10.072;2022-11-20T04:40:42;5.00;99.90
44573;DHT22;31762;45.420;10.072;2022-11-20T04:45:51;5.10;99.90
44573;DHT22;31762;45.420;10.072;2022-11-20T04:50:53;5.30;99.90
44573;DHT22;31762;45.420;10.072;2022-11-20T04:56:03;5.60;99.90
44573;DHT22;31762;45.420;10.072;2022-11-20T05:01:06;5.70;99.90
44573;DHT22;31762;45.420;10.072;2022-11-20T05:06:10;5.80;99.90
44573;DHT22;31762;45.420;10.072;2022-11-20T05:11:13;5.50;99.90
44573;DHT22;31762;45.420;10.072;2022-11-20T05:16:18;5.50;99.90
44573;DHT22;31762;45.420;10.072;2022-11-20T05:21:21;5.70;99.90
44573;DHT22;31762;45.420;10.072;2022-11-20T05:26:23;5.80;99.90
44573;DHT22;31762;45.420;10.072;2022-11-20T05:31:25;5.30;99.90
44573;DHT22;31762;45.420;10.072;2022-11-20T05:36:30;5.30;99.90
44573;DHT22;31762;45.420;10.072;2022-11-20T05:41:33;5.50;99.90
44573;DHT22;31762;45.420;10.072;2022-11-20T05:46:35;5.30;99.90
44573;DHT22;31762;45.420;10.072;2022-11-20T05:51:36;5.20;99.90
44573;DHT22;31762;45.420;10.072;2022-11-20T05:56:38;5.50;99.90
44573;DHT22;31762;45.420;10.072;2022-11-20T06:01:40;5.60;99.90
44573;DHT22;31762;45.420;10.072;2022-11-20T06:06:42;5.80;99.90
44573;DHT22;31762;45.420;10.072;2022-11-20T06:11:43;5.20;99.90
44573;DHT22;31762;45.420;10.072;2022-11-20T06:16:45;5.30;99.90
44573;DHT22;31762;45.420;10.072;2022-11-20T06:21:48;5.40;99.90
44573;DHT22;31762;45.420;10.072;2022-11-20T06:26:50;6.10;99.90
44573;DHT22;31762;45.420;10.072;2022-11-20T06:31:52;5.80;99.90
44573;DHT22;31762;45.420;10.072;2022-11-20T06:36:53;5.70;99.90
44573;DHT22;31762;45.420;10.072;2022-11-20T06:41:55;5.80;99.90
44573;DHT22;31762;45.420;10.072;2022-11-20T06:46:59;5.80;99.90
44573;DHT22;31762;45.420;10.072;2022-11-20T06:52:01;5.60;99.90
44573;DHT22;31762;45.420;10.072;2022-11-20T06:57:03;5.60;99.90
44573;DHT22;31762;45.420;10.072;2022-11-20T07:02:05;6.20;99.90
44573;DHT22;31762;45.420;10.072;2022-11-20T07:07:06;6.20;99.90
44573;DHT22;31762;45.420;10.072;2022-11-20T07:12:08;6.30;99.90
44573;DHT22;31762;45.420;10.072;2022-11-20T07:17:11;6.10;99.90
44573;DHT22;31762;45.420;10.072;2022-11-20T07:22:12;6.00;99.90
44573;DHT22;31762;45.420;10.072;2022-11-20T07:27:14;6.70;99.90
44573;DHT22;31762;45.420;10.072;2022-11-20T07:32:16;6.40;99.90
44573;DHT22;31762;45.420;10.072;2022-11-20T07:37:18;6.60;99.90
44573;DHT22;31762;45.420;10.072;2022-11-20T07:42:20;6.80;99.90
44573;DHT22;31762;45.420;10.072;2022-11-20T07:47:21;6.80;99.90
44573;DHT22;31762;45.420;10.072;2022-11-20T07:52:23;7.00;99.90
44573;DHT22;31762;45.420;10.072;2022-11-20T07:57:25;7.40;99.90
44573;DHT22;31762;45.420;10.072;2022-11-20T08:02:29;7.70;99.90
44573;DHT22;31762;45.420;10.072;2022-11-20T08:07:42;7.60;99.90
44573;DHT22;31762;45.420;10.072;2022-11-20T08:12:49;7.60;99.90
44573;DHT22;31762;45.420;10.072;2022-11-20T08:17:51;7.90;99.90
44573;DHT22;31762;45.420;10.072;2022-11-20T08:23:13;7.90;99.90
44573;DHT22;31762;45.420;10.072;2022-11-20T08:28:14;8.00;99.90
44573;DHT22;31762;45.420;10.072;2022-11-20T08:33:22;8.20;99.90
44573;DHT22;31762;45.420;10.072;2022-11-20T08:38:23;8.00;99.90
44573;DHT22;31762;45.420;10.072;2022-11-20T08:43:25;8.00;99.90
44573;DHT22;31762;45.420;10.072;2022-11-20T08:48:27;8.10;99.90
44573;DHT22;31762;45.420;10.072;2022-11-20T08:53:28;8.20;99.90
44573;DHT22;31762;45.420;10.072;2022-11-20T08:58:30;8.40;99.90
44573;DHT22;31762;45.420;10.072;2022-11-20T09:03:52;8.10;99.90
44573;DHT22;31762;45.420;10.072;2022-11-20T09:08:56;8.20;99.90
44573;DHT22;31762;45.420;10.072;2022-11-20T09:14:02;8.30;99.90
44573;DHT22;31762;45.420;10.072;2022-11-20T09:19:04;8.50;99.90
44573;DHT22;31762;45.420;10.072;2022-11-20T09:24:27;8.60;99.90
44573;DHT22;31762;45.420;10.072;2022-11-20T09:29:28;8.60;99.90
44573;DHT22;31762;45.420;10.072;2022-11-20T09:34:30;8.60;99.90
44573;DHT22;31762;45.420;10.072;2022-11-20T09:39:32;8.80;99.90
44573;DHT22;31762;45.420;10.072;2022-11-20T09:55:24;9.40;99.90
44573;DHT22;31762;45.420;10.072;2022-11-20T10:00:28;9.50;99.90
44573;DHT22;31762;45.420;10.072;2022-11-20T10:05:57;9.60;99.90
44573;DHT22;31762;45.420;10.072;2022-11-20T10:11:04;9.60;99.90
44573;DHT22;31762;45.420;10.072;2022-11-20T10:21:54;9.60;99.90
44573;DHT22;31762;45.420;10.072;2022-11-20T10:32:16;9.00;99.90
44573;DHT22;31762;45.420;10.072;2022-11-20T10:37:27;9.30;99.90
44573;DHT22;31762;45.420;10.072;2022-11-20T10:43:16;9.20;99.90
44573;DHT22;31762;45.420;10.072;2022-11-20T10:53:25;9.20;99.90
44573;DHT22;31762;45.420;10.072;2022-11-20T10:59:22;9.90;99.90
44573;DHT22;31762;45.420;10.072;2022-11-20T11:04:37;10.30;99.90
44573;DHT22;31762;45.420;10.072;2022-11-20T11:09:43;10.50;99.90
44573;DHT22;31762;45.420;10.072;2022-11-20T11:14:54;10.50;99.90
44573;DHT22;31762;45.420;10.072;2022-11-20T11:20:04;10.90;99.90
44573;DHT22;31762;45.420;10.072;2022-11-20T11:25:11;11.20;99.90
44573;DHT22;31762;45.420;10.072;2022-11-20T11:30:20;11.20;99.90
44573;DHT22;31762;45.420;10.072;2022-11-20T11:35:25;11.30;99.90
44573;DHT22;31762;45.420;10.072;2022-11-20T11:40:29;11.00;99.90
44573;DHT22;31762;45.420;10.072;2022-11-20T11:45:32;11.50;99.90
44573;DHT22;31762;45.420;10.072;2022-11-20T11:50:34;11.60;99.90
44573;DHT22;31762;45.420;10.072;2022-11-20T11:55:58;11.90;99.90
44573;DHT22;31762;45.420;10.072;2022-11-20T12:06:15;11.90;99.90
44573;DHT22;31762;45.420;10.072;2022-11-20T12:16:35;11.60;99.90
44573;DHT22;31762;45.420;10.072;2022-11-20T12:43:31;11.80;99.90
44573;DHT22;31762;45.420;10.072;2022-11-20T12:48:55;12.40;99.90
44573;DHT22;31762;45.420;10.072;2022-11-20T13:05:05;13.20;99.90
44573;DHT22;31762;45.420;10.072;2022-11-20T13:10:39;13.30;99.90
44573;DHT22;31762;45.420;10.072;2022-11-20T13:21:17;12.60;99.90
44573;DHT22;31762;45.420;10.072;2022-11-20T13:26:22;12.70;99.90
44573;DHT22;31762;45.420;10.072;2022-11-20T13:31:32;12.70;99.90
44573;DHT22;31762;45.420;10.072;2022-11-20T13:36:34;12.70;99.90
44573;DHT22;31762;45.420;10.072;2022-11-20T13:41:37;12.90;99.90
44573;DHT22;31762;45.420;10.072;2022-11-20T13:46:41;12.60;99.90
44573;DHT22;31762;45.420;10.072;2022-11-20T13:51:48;12.40;99.90
44573;DHT22;31762;45.420;10.072;2022-11-20T13:57:26;12.40;99.90
44573;DHT22;31762;45.420;10.072;2022-11-20T14:02:21;12.50;99.90
44573;DHT22;31762;45.420;10.072;2022-11-20T14:07:37;12.40;99.90
44573;DHT22;31762;45.420;10.072;2022-11-20T14:12:41;12.10;99.90
44573;DHT22;31762;45.420;10.072;2022-11-20T14:17:43;12.30;99.90
44573;DHT22;31762;45.420;10.072;2022-11-20T14:22:49;12.30;99.90
44573;DHT22;31762;45.420;10.072;2022-11-20T14:27:53;12.30;99.90
44573;DHT22;31762;45.420;10.072;2022-11-20T14:33:00;12.50;99.90
44573;DHT22;31762;45.420;10.072;2022-11-20T14:38:03;12.50;99.90
44573;DHT22;31762;45.420;10.072;2022-11-20T14:43:24;12.50;99.90
44573;DHT22;31762;45.420;10.072;2022-11-20T14:48:38;12.10;99.90
44573;DHT22;31762;45.420;10.072;2022-11-20T14:53:40;11.80;99.90
44573;DHT22;31762;45.420;10.072;2022-11-20T14:58:42;11.70;99.90
44573;DHT22;31762;45.420;10.072;2022-11-20T15:03:44;12.00;99.90
44573;DHT22;31762;45.420;10.072;2022-11-20T15:08:52;12.10;99.90
44573;DHT22;31762;45.420;10.072;2022-11-20T15:13:54;11.60;99.90
44573;DHT22;31762;45.420;10.072;2022-11-20T15:18:56;11.30;99.90
44573;DHT22;31762;45.420;10.072;2022-11-20T15:23:58;11.10;99.90
44573;DHT22;31762;45.420;10.072;2022-11-20T15:29:00;11.20;99.90
44573;DHT22;31762;45.420;10.072;2022-11-20T15:34:02;11.10;99.90
44573;DHT22;31762;45.420;10.072;2022-11-20T15:39:03;10.90;99.90
44573;DHT22;31762;45.420;10.072;2022-11-20T15:44:05;10.70;99.90
44573;DHT22;31762;45.420;10.072;2022-11-20T15:49:15;10.50;99.90
44573;DHT22;31762;45.420;10.072;2022-11-20T15:54:21;10.30;99.90
44573;DHT22;31762;45.420;10.072;2022-11-20T15:59:24;10.10;99.90
44573;DHT22;31762;45.420;10.072;2022-11-20T16:04:26;10.00;99.90
44573;DHT22;31762;45.420;10.072;2022-11-20T16:09:27;9.90;99.90
44573;DHT22;31762;45.420;10.072;2022-11-20T16:14:29;9.80;99.90
44573;DHT22;31762;45.420;10.072;2022-11-20T16:19:31;9.60;99.90
44573;DHT22;31762;45.420;10.072;2022-11-20T16:24:32;9.40;99.90
44573;DHT22;31762;45.420;10.072;2022-11-20T16:29:34;9.60;99.90
44573;DHT22;31762;45.420;10.072;2022-11-20T16:34:36;9.50;99.90
44573;DHT22;31762;45.420;10.072;2022-11-20T16:39:38;9.40;99.90
44573;DHT22;31762;45.420;10.072;2022-11-20T16:44:40;9.20;99.90
44573;DHT22;31762;45.420;10.072;2022-11-20T16:49:42;9.20;99.90
44573;DHT22;31762;45.420;10.072;2022-11-20T16:54:44;9.00;99.90
44573;DHT22;31762;45.420;10.072;2022-11-20T16:59:46;8.90;99.90
44573;DHT22;31762;45.420;10.072;2022-11-20T17:04:48;8.90;99.90
44573;DHT22;31762;45.420;10.072;2022-11-20T17:09:49;9.00;99.90
44573;DHT22;31762;45.420;10.072;2022-11-20T17:14:51;8.90;99.90
44573;DHT22;31762;45.420;10.072;2022-11-20T17:19:53;8.90;99.90
44573;DHT22;31762;45.420;10.072;2022-11-20T17:24:55;8.80;99.90
44573;DHT22;31762;45.420;10.072;2022-11-20T17:29:57;9.30;99.90
44573;DHT22;31762;45.420;10.072;2022-11-20T17:34:59;9.40;99.90
44573;DHT22;31762;45.420;10.072;2022-11-20T17:40:01;9.30;99.90
44573;DHT22;31762;45.420;10.072;2022-11-20T17:45:04;8.70;99.90
44573;DHT22;31762;45.420;10.072;2022-11-20T17:50:06;8.70;99.90
44573;DHT22;31762;45.420;10.072;2022-11-20T17:55:08;8.40;99.90
44573;DHT22;31762;45.420;10.072;2022-11-20T18:00:10;8.30;99.90
44573;DHT22;31762;45.420;10.072;2022-11-20T18:05:12;8.50;99.90
44573;DHT22;31762;45.420;10.072;2022-11-20T18:10:15;8.30;99.90
44573;DHT22;31762;45.420;10.072;2022-11-20T18:15:16;8.50;99.90
44573;DHT22;31762;45.420;10.072;2022-11-20T18:20:18;8.20;99.90
44573;DHT22;31762;45.420;10.072;2022-11-20T18:25:40;8.00;99.90
44573;DHT22;31762;45.420;10.072;2022-11-20T18:30:42;8.00;99.90
44573;DHT22;31762;45.420;10.072;2022-11-20T18:35:44;7.70;99.90
44573;DHT22;31762;45.420;10.072;2022-11-20T18:40:45;7.70;99.90
44573;DHT22;31762;45.420;10.072;2022-11-20T18:45:47;8.40;99.90
44573;DHT22;31762;45.420;10.072;2022-11-20T18:50:49;8.10;99.90
44573;DHT22;31762;45.420;10.072;2022-11-20T18:55:51;8.00;99.90
44573;DHT22;31762;45.420;10.072;2022-11-20T19:00:52;8.20;99.90
44573;DHT22;31762;45.420;10.072;2022-11-20T19:05:54;8.10;99.90
44573;DHT22;31762;45.420;10.072;2022-11-20T19:11:07;7.60;99.90
44573;DHT22;31762;45.420;10.072;2022-11-20T19:16:14;8.10;99.90
44573;DHT22;31762;45.420;10.072;2022-11-20T19:21:22;7.80;99.90
44573;DHT22;31762;45.420;10.072;2022-11-20T19:26:24;7.60;99.90
44573;DHT22;31762;45.420;10.072;2022-11-20T19:31:26;7.80;99.90
44573;DHT22;31762;45.420;10.072;2022-11-20T19:36:34;7.80;99.90
44573;DHT22;31762;45.420;10.072;2022-11-20T19:41:41;7.80;99.90
44573;DHT22;31762;45.420;10.072;2022-11-20T19:46:43;7.60;99.90
44573;DHT22;31762;45.420;10.072;2022-11-20T19:51:46;7.50;99.90
44573;DHT22;31762;45.420;10.072;2022-11-20T19:56:49;7.30;99.90
44573;DHT22;31762;45.420;10.072;2022-11-20T20:01:50;7.10;99.90
44573;DHT22;31762;45.420;10.072;2022-11-20T20:06:52;7.30;99.90
44573;DHT22;31762;45.420;10.072;2022-11-20T20:11:54;7.20;99.90
44573;DHT22;31762;45.420;10.072;2022-11-20T20:16:55;7.40;99.90
44573;DHT22;31762;45.420;10.072;2022-11-20T20:21:57;7.20;99.90
44573;DHT22;31762;45.420;10.072;2022-11-20T20:26:59;7.20;99.90
44573;DHT22;31762;45.420;10.072;2022-11-20T20:32:00;7.30;99.90
44573;DHT22;31762;45.420;10.072;2022-11-20T20:37:02;7.50;99.90
44573;DHT22;31762;45.420;10.072;2022-11-20T20:42:04;7.50;99.90
44573;DHT22;31762;45.420;10.072;2022-11-20T20:47:06;7.50;99.90
44573;DHT22;31762;45.420;10.072;2022-11-20T20:52:08;6.90;99.90
44573;DHT22;31762;45.420;10.072;2022-11-20T20:57:10;7.10;99.90
44573;DHT22;31762;45.420;10.072;2022-11-20T21:02:11;7.10;99.90
44573;DHT22;31762;45.420;10.072;2022-11-20T21:07:13;6.80;99.90
44573;DHT22;31762;45.420;10.072;2022-11-20T21:12:15;6.70;99.90
44573;DHT22;31762;45.420;10.072;2022-11-20T21:17:17;6.60;99.90
44573;DHT22;31762;45.420;10.072;2022-11-20T21:22:18;6.70;99.90
44573;DHT22;31762;45.420;10.072;2022-11-20T21:27:20;6.70;99.90
44573;DHT22;31762;45.420;10.072;2022-11-20T21:32:22;6.60;99.90
44573;DHT22;31762;45.420;10.072;2022-11-20T21:37:24;6.60;99.90
44573;DHT22;31762;45.420;10.072;2022-11-20T21:42:25;6.60;99.90
44573;DHT22;31762;45.420;10.072;2022-11-20T21:47:27;6.90;99.90
44573;DHT22;31762;45.420;10.072;2022-11-20T21:52:29;6.90;99.90
44573;DHT22;31762;45.420;10.072;2022-11-20T21:57:34;7.30;99.90
44573;DHT22;31762;45.420;10.072;2022-11-20T22:02:37;7.10;99.90
44573;DHT22;31762;45.420;10.072;2022-11-20T22:07:42;7.40;99.90
44573;DHT22;31762;45.420;10.072;2022-11-20T22:12:44;7.50;99.90
44573;DHT22;31762;45.420;10.072;2022-11-20T22:17:46;7.40;99.90
44573;DHT22;31762;45.420;10.072;2022-11-20T22:22:48;7.30;99.90
44573;DHT22;31762;45.420;10.072;2022-11-20T22:27:49;7.40;99.90
44573;DHT22;31762;45.420;10.072;2022-11-20T22:32:51;7.50;99.90
44573;DHT22;31762;45.420;10.072;2022-11-20T22:37:53;7.50;99.90
44573;DHT22;31762;45.420;10.072;2022-11-20T22:42:55;7.40;99.90
44573;DHT22;31762;45.420;10.072;2022-11-20T22:47:57;7.40;99.90
44573;DHT22;31762;45.420;10.072;2022-11-20T22:52:58;7.30;99.90
44573;DHT22;31762;45.420;10.072;2022-11-20T22:58:00;7.10;99.90
44573;DHT22;31762;45.420;10.072;2022-11-20T23:03:02;7.30;99.90
44573;DHT22;31762;45.420;10.072;2022-11-20T23:08:04;7.60;99.90
44573;DHT22;31762;45.420;10.072;2022-11-20T23:13:05;7.50;99.90
44573;DHT22;31762;45.420;10.072;2022-11-20T23:18:07;7.70;99.90
44573;DHT22;31762;45.420;10.072;2022-11-20T23:23:09;7.50;99.90
44573;DHT22;31762;45.420;10.072;2022-11-20T23:28:11;7.60;99.90
44573;DHT22;31762;45.420;10.072;2022-11-20T23:33:12;7.40;99.90
44573;DHT22;31762;45.420;10.072;2022-11-20T23:38:14;7.30;99.90
44573;DHT22;31762;45.420;10.072;2022-11-20T23:43:18;7.60;99.90
44573;DHT22;31762;45.420;10.072;2022-11-20T23:48:21;7.30;99.90
44573;DHT22;31762;45.420;10.072;2022-11-20T23:53:24;7.30;99.90
44573;DHT22;31762;45.420;10.072;2022-11-20T23:58:31;7.30;99.90
